sensor_id;sensor_type;location;lat;lon;timestamp;pressure;altitude;pressure_sealevel;temperature;humidity
57990;BME280;58373;51.824;5.564;2023-03-31T00:00:57;100275.34;;;9.69;91.76
57990;BME280;58373;51.824;5.564;2023-03-31T00:03:24;100275.34;;;9.69;91.92
57990;BME280;58373;51.824;5.564;2023-03-31T00:05:56;100275.34;;;9.69;92.85
57990;BME280;58373;51.824;5.564;2023-03-31T00:08:22;100265.94;;;9.68;91.99
57990;BME280;58373;51.824;5.564;2023-03-31T00:10:47;100260.09;;;9.66;92.67
57990;BME280;58373;51.824;5.564;2023-03-31T00:13:13;100251.38;;;9.67;92.51
57990;BME280;58373;51.824;5.564;2023-03-31T00:15:38;100241.81;;;9.67;92.38
57990;BME280;58373;51.824;5.564;2023-03-31T00:18:03;100249.44;;;9.69;92.25
57990;BME280;58373;51.824;5.564;2023-03-31T00:20:29;100249.44;;;9.69;93.12
57990;BME280;58373;51.824;5.564;2023-03-31T00:22:57;100248.25;;;9.73;93.04
57990;BME280;58373;51.824;5.564;2023-03-31T00:25:23;100250.84;;;9.73;93.15
57990;BME280;58373;51.824;5.564;2023-03-31T00:27:48;100245.66;;;9.73;93.29
57990;BME280;58373;51.824;5.564;2023-03-31T00:30:16;100251.66;;;9.73;93.85
57990;BME280;58373;51.824;5.564;2023-03-31T00:32:42;100244.03;;;9.72;93.46
57990;BME280;58373;51.824;5.564;2023-03-31T00:35:07;100239.09;;;9.69;93.55
57990;BME280;58373;51.824;5.564;2023-03-31T00:37:33;100227.09;;;9.68;96.00
57990;BME280;58373;51.824;5.564;2023-03-31T00:39:58;100217.03;;;9.65;95.56
57990;BME280;58373;51.824;5.564;2023-03-31T00:42:24;100215.41;;;9.64;95.64
57990;BME280;58373;51.824;5.564;2023-03-31T00:47:33;100206.13;;;9.61;97.04
57990;BME280;58373;51.824;5.564;2023-03-31T00:49:59;100188.38;;;9.56;97.70
57990;BME280;58373;51.824;5.564;2023-03-31T00:52:30;100179.00;;;9.55;97.39
57990;BME280;58373;51.824;5.564;2023-03-31T00:55:01;100171.50;;;9.52;97.76
57990;BME280;58373;51.824;5.564;2023-03-31T00:57:28;100166.44;;;9.51;98.02
57990;BME280;58373;51.824;5.564;2023-03-31T00:59:57;100159.78;;;9.48;97.97
57990;BME280;58373;51.824;5.564;2023-03-31T01:02:23;100156.38;;;9.48;97.75
57990;BME280;58373;51.824;5.564;2023-03-31T01:04:53;100154.75;;;9.47;97.28
57990;BME280;58373;51.824;5.564;2023-03-31T01:07:23;100158.16;;;9.47;98.10
57990;BME280;58373;51.824;5.564;2023-03-31T01:09:49;100140.84;;;9.48;98.47
57990;BME280;58373;51.824;5.564;2023-03-31T01:12:18;100144.25;;;9.48;98.14
57990;BME280;58373;51.824;5.564;2023-03-31T01:14:44;100144.25;;;9.48;97.68
57990;BME280;58373;51.824;5.564;2023-03-31T01:17:10;100135.53;;;9.49;98.04
57990;BME280;58373;51.824;5.564;2023-03-31T01:19:45;100141.50;;;9.50;98.06
57990;BME280;58373;51.824;5.564;2023-03-31T01:25:00;100127.59;;;9.51;98.09
57990;BME280;58373;51.824;5.564;2023-03-31T01:33:28;100103.66;;;9.49;97.96
57990;BME280;58373;51.824;5.564;2023-03-31T01:35:39;100101.19;;;9.47;98.48
57990;BME280;58373;51.824;5.564;2023-03-31T01:43:25;100089.22;;;9.46;98.93
57990;BME280;58373;51.824;5.564;2023-03-31T01:45:59;100086.63;;;9.46;98.71
57990;BME280;58373;51.824;5.564;2023-03-31T01:50:54;100078.16;;;9.44;98.63
57990;BME280;58373;51.824;5.564;2023-03-31T01:58:51;100048.88;;;9.44;99.43
57990;BME280;58373;51.824;5.564;2023-03-31T02:01:19;100042.88;;;9.43;99.09
57990;BME280;58373;51.824;5.564;2023-03-31T02:03:53;100039.34;;;9.44;99.47
57990;BME280;58373;51.824;5.564;2023-03-31T02:06:24;100029.94;;;9.43;98.90
57990;BME280;58373;51.824;5.564;2023-03-31T02:08:56;100027.34;;;9.43;100.00
57990;BME280;58373;51.824;5.564;2023-03-31T02:11:22;100012.63;;;9.44;99.25
57990;BME280;58373;51.824;5.564;2023-03-31T02:13:48;100013.44;;;9.44;99.36
57990;BME280;58373;51.824;5.564;2023-03-31T02:16:18;100002.28;;;9.44;100.00
57990;BME280;58373;51.824;5.564;2023-03-31T02:18:45;100003.09;;;9.44;100.00
57990;BME280;58373;51.824;5.564;2023-03-31T02:21:12;100001.47;;;9.43;100.00
57990;BME280;58373;51.824;5.564;2023-03-31T02:23:38;99990.84;;;9.46;98.99
57990;BME280;58373;51.824;5.564;2023-03-31T02:28:29;99986.59;;;9.45;100.00
57990;BME280;58373;51.824;5.564;2023-03-31T02:33:32;99959.09;;;9.44;100.00
57990;BME280;58373;51.824;5.564;2023-03-31T02:35:58;99960.06;;;9.43;99.90
57990;BME280;58373;51.824;5.564;2023-03-31T02:38:23;99950.53;;;9.44;100.00
57990;BME280;58373;51.824;5.564;2023-03-31T02:40:49;99937.72;;;9.42;100.00
57990;BME280;58373;51.824;5.564;2023-03-31T02:43:14;99927.38;;;9.42;100.00
57990;BME280;58373;51.824;5.564;2023-03-31T02:48:18;99920.28;;;9.44;100.00
57990;BME280;58373;51.824;5.564;2023-03-31T02:53:30;99896.31;;;9.42;100.00
57990;BME280;58373;51.824;5.564;2023-03-31T02:56:05;99898.22;;;9.40;100.00
57990;BME280;58373;51.824;5.564;2023-03-31T03:01:10;99877.81;;;9.37;100.00
57990;BME280;58373;51.824;5.564;2023-03-31T03:14:08;99854.66;;;9.36;100.00
57990;BME280;58373;51.824;5.564;2023-03-31T03:16:39;99858.34;;;9.33;100.00
57990;BME280;58373;51.824;5.564;2023-03-31T03:19:07;99855.75;;;9.33;100.00
57990;BME280;58373;51.824;5.564;2023-03-31T03:21:32;99848.94;;;9.32;100.00
57990;BME280;58373;51.824;5.564;2023-03-31T03:23:58;99845.69;;;9.30;100.00
57990;BME280;58373;51.824;5.564;2023-03-31T03:26:24;99843.09;;;9.30;100.00
57990;BME280;58373;51.824;5.564;2023-03-31T03:28:52;99835.34;;;9.30;100.00
57990;BME280;58373;51.824;5.564;2023-03-31T03:31:18;99814.63;;;9.30;100.00
57990;BME280;58373;51.824;5.564;2023-03-31T03:33:43;99818.19;;;9.29;100.00
57990;BME280;58373;51.824;5.564;2023-03-31T03:36:09;99795.84;;;9.28;100.00
57990;BME280;58373;51.824;5.564;2023-03-31T03:38:34;99801.69;;;9.30;100.00
57990;BME280;58373;51.824;5.564;2023-03-31T03:41:00;99794.75;;;9.30;100.00
57990;BME280;58373;51.824;5.564;2023-03-31T03:43:25;99790.38;;;9.31;100.00
57990;BME280;58373;51.824;5.564;2023-03-31T03:45:50;99785.22;;;9.31;100.00
57990;BME280;58373;51.824;5.564;2023-03-31T03:48:16;99777.44;;;9.31;100.00
57990;BME280;58373;51.824;5.564;2023-03-31T03:50:42;99769.69;;;9.31;100.00
57990;BME280;58373;51.824;5.564;2023-03-31T03:53:07;99783.59;;;9.30;100.00
57990;BME280;58373;51.824;5.564;2023-03-31T03:55:32;99789.84;;;9.27;100.00
57990;BME280;58373;51.824;5.564;2023-03-31T03:57:58;99777.06;;;9.26;100.00
57990;BME280;58373;51.824;5.564;2023-03-31T04:00:23;99768.34;;;9.27;100.00
57990;BME280;58373;51.824;5.564;2023-03-31T04:02:48;99744.38;;;9.25;100.00
57990;BME280;58373;51.824;5.564;2023-03-31T04:05:13;99740.03;;;9.25;100.00
57990;BME280;58373;51.824;5.564;2023-03-31T04:07:39;99722.72;;;9.26;100.00
57990;BME280;58373;51.824;5.564;2023-03-31T04:10:05;99716.59;;;9.27;100.00
57990;BME280;58373;51.824;5.564;2023-03-31T04:12:30;99712.38;;;9.26;100.00
57990;BME280;58373;51.824;5.564;2023-03-31T04:14:57;99692.66;;;9.25;100.00
57990;BME280;58373;51.824;5.564;2023-03-31T04:17:22;99686.50;;;9.26;100.00
57990;BME280;58373;51.824;5.564;2023-03-31T04:19:56;99682.28;;;9.25;100.00
57990;BME280;58373;51.824;5.564;2023-03-31T04:22:25;99679.72;;;9.25;100.00
57990;BME280;58373;51.824;5.564;2023-03-31T04:24:53;99666.09;;;9.23;100.00
57990;BME280;58373;51.824;5.564;2023-03-31T04:27:22;99656.56;;;9.23;100.00
57990;BME280;58373;51.824;5.564;2023-03-31T04:29:51;99649.91;;;9.21;100.00
57990;BME280;58373;51.824;5.564;2023-03-31T04:32:19;99646.66;;;9.19;100.00
57990;BME280;58373;51.824;5.564;2023-03-31T04:34:45;99627.03;;;9.16;100.00
57990;BME280;58373;51.824;5.564;2023-03-31T04:37:11;99633.03;;;9.17;100.00
57990;BME280;58373;51.824;5.564;2023-03-31T04:39:36;99621.06;;;9.16;100.00
57990;BME280;58373;51.824;5.564;2023-03-31T04:42:01;99614.28;;;9.15;100.00
57990;BME280;58373;51.824;5.564;2023-03-31T04:44:27;99616.19;;;9.13;100.00
57990;BME280;58373;51.824;5.564;2023-03-31T04:46:52;99608.56;;;9.11;100.00
57990;BME280;58373;51.824;5.564;2023-03-31T04:49:17;99605.97;;;9.11;100.00
57990;BME280;58373;51.824;5.564;2023-03-31T04:51:43;99600.00;;;9.11;100.00
57990;BME280;58373;51.824;5.564;2023-03-31T04:54:09;99594.16;;;9.09;100.00
57990;BME280;58373;51.824;5.564;2023-03-31T04:56:34;99597.72;;;9.08;100.00
57990;BME280;58373;51.824;5.564;2023-03-31T04:58:59;99583.16;;;9.07;100.00
57990;BME280;58373;51.824;5.564;2023-03-31T05:01:25;99585.06;;;9.04;100.00
57990;BME280;58373;51.824;5.564;2023-03-31T05:03:50;99569.53;;;9.04;100.00
57990;BME280;58373;51.824;5.564;2023-03-31T05:06:15;99566.94;;;9.04;100.00
57990;BME280;58373;51.824;5.564;2023-03-31T05:08:41;99560.16;;;9.03;100.00
57990;BME280;58373;51.824;5.564;2023-03-31T05:11:06;99548.19;;;9.02;100.00
57990;BME280;58373;51.824;5.564;2023-03-31T05:13:31;99553.38;;;9.02;100.00
57990;BME280;58373;51.824;5.564;2023-03-31T05:15:56;99546.56;;;9.01;100.00
57990;BME280;58373;51.824;5.564;2023-03-31T05:18:22;99549.16;;;9.01;100.00
57990;BME280;58373;51.824;5.564;2023-03-31T05:20:47;99545.75;;;9.01;100.00
57990;BME280;58373;51.824;5.564;2023-03-31T05:23:12;99539.78;;;9.00;100.00
57990;BME280;58373;51.824;5.564;2023-03-31T05:25:38;99537.19;;;9.00;100.00
57990;BME280;58373;51.824;5.564;2023-03-31T05:28:03;99532.03;;;9.00;100.00
57990;BME280;58373;51.824;5.564;2023-03-31T05:30:29;99513.06;;;9.00;100.00
57990;BME280;58373;51.824;5.564;2023-03-31T05:32:55;99519.09;;;9.00;100.00
57990;BME280;58373;51.824;5.564;2023-03-31T05:35:20;99512.25;;;8.99;100.00
57990;BME280;58373;51.824;5.564;2023-03-31T05:37:46;99507.25;;;8.98;100.00
57990;BME280;58373;51.824;5.564;2023-03-31T05:40:11;99508.22;;;8.97;100.00
57990;BME280;58373;51.824;5.564;2023-03-31T05:42:37;99501.41;;;8.96;100.00
57990;BME280;58373;51.824;5.564;2023-03-31T05:45:02;99500.59;;;8.95;100.00
57990;BME280;58373;51.824;5.564;2023-03-31T05:47:27;99497.34;;;8.93;100.00
57990;BME280;58373;51.824;5.564;2023-03-31T05:49:53;99518.03;;;8.93;100.00
57990;BME280;58373;51.824;5.564;2023-03-31T05:52:18;99514.63;;;8.93;100.00
57990;BME280;58373;51.824;5.564;2023-03-31T05:54:43;99496.03;;;8.89;100.00
57990;BME280;58373;51.824;5.564;2023-03-31T05:57:08;99502.50;;;8.93;100.00
57990;BME280;58373;51.824;5.564;2023-03-31T05:59:34;99498.16;;;8.94;100.00
57990;BME280;58373;51.824;5.564;2023-03-31T06:02:00;99490.28;;;8.95;100.00
57990;BME280;58373;51.824;5.564;2023-03-31T06:04:25;99491.88;;;8.96;100.00
57990;BME280;58373;51.824;5.564;2023-03-31T06:06:51;99493.50;;;8.97;100.00
57990;BME280;58373;51.824;5.564;2023-03-31T06:09:18;99487.38;;;8.98;100.00
57990;BME280;58373;51.824;5.564;2023-03-31T06:11:43;99491.56;;;8.99;100.00
57990;BME280;58373;51.824;5.564;2023-03-31T06:14:08;99489.69;;;9.01;100.00
57990;BME280;58373;51.824;5.564;2023-03-31T06:16:33;99475.78;;;9.02;100.00
57990;BME280;58373;51.824;5.564;2023-03-31T06:18:58;99480.94;;;9.02;100.00
57990;BME280;58373;51.824;5.564;2023-03-31T06:21:24;99479.81;;;9.05;100.00
57990;BME280;58373;51.824;5.564;2023-03-31T06:23:49;99479.69;;;9.07;100.00
57990;BME280;58373;51.824;5.564;2023-03-31T06:26:19;99478.06;;;9.05;100.00
57990;BME280;58373;51.824;5.564;2023-03-31T06:28:44;99478.72;;;9.08;100.00
57990;BME280;58373;51.824;5.564;2023-03-31T06:31:11;99480.19;;;9.10;100.00
57990;BME280;58373;51.824;5.564;2023-03-31T06:33:37;99478.72;;;9.08;100.00
57990;BME280;58373;51.824;5.564;2023-03-31T06:36:02;99478.72;;;9.08;100.00
57990;BME280;58373;51.824;5.564;2023-03-31T06:38:29;99458.69;;;9.10;100.00
57990;BME280;58373;51.824;5.564;2023-03-31T06:40:54;99460.63;;;9.08;100.00
57990;BME280;58373;51.824;5.564;2023-03-31T06:43:20;99464.19;;;9.07;100.00
57990;BME280;58373;51.824;5.564;2023-03-31T06:45:45;99458.31;;;9.04;100.00
57990;BME280;58373;51.824;5.564;2023-03-31T06:48:10;99446.38;;;9.03;100.00
57990;BME280;58373;51.824;5.564;2023-03-31T06:51:21;99439.56;;;9.02;100.00
57990;BME280;58373;51.824;5.564;2023-03-31T06:53:27;99443.13;;;9.01;100.00
57990;BME280;58373;51.824;5.564;2023-03-31T06:55:53;99439.56;;;9.02;100.00
57990;BME280;58373;51.824;5.564;2023-03-31T06:58:18;99437.94;;;9.01;100.00
57990;BME280;58373;51.824;5.564;2023-03-31T07:00:43;99428.41;;;9.02;100.00
57990;BME280;58373;51.824;5.564;2023-03-31T07:03:10;99426.00;;;9.00;100.00
57990;BME280;58373;51.824;5.564;2023-03-31T07:05:36;99431.16;;;9.00;100.00
57990;BME280;58373;51.824;5.564;2023-03-31T07:08:01;99431.16;;;9.00;100.00
57990;BME280;58373;51.824;5.564;2023-03-31T07:10:27;99423.53;;;8.99;100.00
57990;BME280;58373;51.824;5.564;2023-03-31T07:12:52;99419.16;;;8.99;100.00
57990;BME280;58373;51.824;5.564;2023-03-31T07:15:18;99414.00;;;8.99;100.00
57990;BME280;58373;51.824;5.564;2023-03-31T07:17:43;99417.25;;;9.01;100.00
57990;BME280;58373;51.824;5.564;2023-03-31T07:20:09;99405.31;;;9.00;100.00
57990;BME280;58373;51.824;5.564;2023-03-31T07:22:39;99401.75;;;9.01;100.00
57990;BME280;58373;51.824;5.564;2023-03-31T07:25:05;99394.97;;;9.00;100.00
57990;BME280;58373;51.824;5.564;2023-03-31T07:27:31;99395.91;;;8.99;100.00
57990;BME280;58373;51.824;5.564;2023-03-31T07:29:56;99388.13;;;8.99;100.00
57990;BME280;58373;51.824;5.564;2023-03-31T07:32:21;99382.97;;;8.99;100.00
57990;BME280;58373;51.824;5.564;2023-03-31T07:34:47;99388.94;;;9.00;100.00
57990;BME280;58373;51.824;5.564;2023-03-31T07:37:12;99383.78;;;9.00;100.00
57990;BME280;58373;51.824;5.564;2023-03-31T07:39:38;99389.47;;;9.03;100.00
57990;BME280;58373;51.824;5.564;2023-03-31T07:42:03;99392.41;;;9.09;100.00
57990;BME280;58373;51.824;5.564;2023-03-31T07:44:28;99385.31;;;9.11;100.00
57990;BME280;58373;51.824;5.564;2023-03-31T07:46:53;99379.84;;;9.14;100.00
57990;BME280;58373;51.824;5.564;2023-03-31T07:49:18;99376.66;;;9.20;100.00
57990;BME280;58373;51.824;5.564;2023-03-31T07:51:44;99381.50;;;9.23;100.00
57990;BME280;58373;51.824;5.564;2023-03-31T07:54:09;99374.09;;;9.28;100.00
57990;BME280;58373;51.824;5.564;2023-03-31T07:56:34;99379.63;;;9.33;100.00
57990;BME280;58373;51.824;5.564;2023-03-31T07:59:00;99375.78;;;9.37;100.00
57990;BME280;58373;51.824;5.564;2023-03-31T08:01:25;99377.13;;;9.41;100.00
57990;BME280;58373;51.824;5.564;2023-03-31T08:03:52;99366.78;;;9.49;100.00
57990;BME280;58373;51.824;5.564;2023-03-31T08:06:20;99369.38;;;9.49;100.00
57990;BME280;58373;51.824;5.564;2023-03-31T08:08:46;99373.13;;;9.55;100.00
57990;BME280;58373;51.824;5.564;2023-03-31T08:11:11;99375.91;;;9.62;100.00
57990;BME280;58373;51.824;5.564;2023-03-31T08:13:37;99374.66;;;9.66;100.00
57990;BME280;58373;51.824;5.564;2023-03-31T08:16:02;99370.47;;;9.73;100.00
57990;BME280;58373;51.824;5.564;2023-03-31T08:18:28;99368.75;;;9.81;100.00
57990;BME280;58373;51.824;5.564;2023-03-31T08:20:53;99360.19;;;9.89;100.00
57990;BME280;58373;51.824;5.564;2023-03-31T08:23:18;99367.97;;;9.97;100.00
57990;BME280;58373;51.824;5.564;2023-03-31T08:25:43;99366.88;;;10.08;100.00
57990;BME280;58373;51.824;5.564;2023-03-31T08:28:09;99359.28;;;10.15;100.00
57990;BME280;58373;51.824;5.564;2023-03-31T08:30:41;99358.97;;;10.09;100.00
57990;BME280;58373;51.824;5.564;2023-03-31T08:33:06;99354.41;;;10.11;100.00
57990;BME280;58373;51.824;5.564;2023-03-31T08:35:32;99357.34;;;10.17;100.00
57990;BME280;58373;51.824;5.564;2023-03-31T08:37:57;99359.78;;;10.18;100.00
57990;BME280;58373;51.824;5.564;2023-03-31T08:40:23;99355.72;;;10.16;100.00
57990;BME280;58373;51.824;5.564;2023-03-31T08:42:50;99354.94;;;10.15;100.00
57990;BME280;58373;51.824;5.564;2023-03-31T08:45:24;99359.28;;;10.15;100.00
57990;BME280;58373;51.824;5.564;2023-03-31T08:47:52;99358.31;;;10.16;100.00
57990;BME280;58373;51.824;5.564;2023-03-31T08:50:20;99356.38;;;10.18;100.00
57990;BME280;58373;51.824;5.564;2023-03-31T08:53:07;99348.59;;;10.18;100.00
57990;BME280;58373;51.824;5.564;2023-03-31T08:55:48;99339.84;;;10.19;100.00
57990;BME280;58373;51.824;5.564;2023-03-31T08:58:28;99341.47;;;10.20;100.00
57990;BME280;58373;51.824;5.564;2023-03-31T09:05:50;99346.72;;;10.28;100.00
57990;BME280;58373;51.824;5.564;2023-03-31T09:10:44;99345.09;;;10.35;100.00
57990;BME280;58373;51.824;5.564;2023-03-31T09:13:23;99339.63;;;10.38;100.00
57990;BME280;58373;51.824;5.564;2023-03-31T09:16:12;99335.72;;;10.42;100.00
57990;BME280;58373;51.824;5.564;2023-03-31T09:18:38;99335.06;;;10.48;100.00
57990;BME280;58373;51.824;5.564;2023-03-31T09:23:50;99323.41;;;10.60;100.00
57990;BME280;58373;51.824;5.564;2023-03-31T09:26:39;99327.94;;;10.67;100.00
57990;BME280;58373;51.824;5.564;2023-03-31T09:29:04;99324.06;;;10.71;100.00
57990;BME280;58373;51.824;5.564;2023-03-31T09:31:31;99325.03;;;10.78;100.00
57990;BME280;58373;51.824;5.564;2023-03-31T09:33:58;99314.81;;;10.84;100.00
57990;BME280;58373;51.824;5.564;2023-03-31T09:36:25;99314.16;;;10.90;100.00
57990;BME280;58373;51.824;5.564;2023-03-31T09:38:50;99310.91;;;10.97;100.00
57990;BME280;58373;51.824;5.564;2023-03-31T09:41:16;99308.78;;;11.00;100.00
57990;BME280;58373;51.824;5.564;2023-03-31T09:43:42;99307.50;;;10.96;100.00
57990;BME280;58373;51.824;5.564;2023-03-31T09:46:29;99305.56;;;10.98;100.00
57990;BME280;58373;51.824;5.564;2023-03-31T09:49:14;99302.28;;;11.12;100.00
57990;BME280;58373;51.824;5.564;2023-03-31T09:51:41;99302.63;;;11.09;100.00
57990;BME280;58373;51.824;5.564;2023-03-31T09:54:18;99302.94;;;11.06;100.00
57990;BME280;58373;51.824;5.564;2023-03-31T10:02:50;99305.84;;;11.11;97.58
57990;BME280;58373;51.824;5.564;2023-03-31T10:04:56;99298.69;;;11.30;94.30
57990;BME280;58373;51.824;5.564;2023-03-31T10:07:22;99305.84;;;11.11;95.88
57990;BME280;58373;51.824;5.564;2023-03-31T10:09:47;99313.28;;;11.23;96.44
57990;BME280;58373;51.824;5.564;2023-03-31T10:12:16;99299.31;;;11.24;93.54
57990;BME280;58373;51.824;5.564;2023-03-31T10:14:44;99305.84;;;11.11;94.17
57990;BME280;58373;51.824;5.564;2023-03-31T10:17:17;99289.16;;;11.14;94.99
57990;BME280;58373;51.824;5.564;2023-03-31T10:19:50;99299.66;;;11.21;92.96
57990;BME280;58373;51.824;5.564;2023-03-31T10:22:26;99293.31;;;11.31;93.01
57990;BME280;58373;51.824;5.564;2023-03-31T10:24:52;99297.03;;;11.37;92.72
57990;BME280;58373;51.824;5.564;2023-03-31T10:27:24;99273.66;;;11.37;93.01
57990;BME280;58373;51.824;5.564;2023-03-31T10:29:51;99283.38;;;11.43;92.34
57990;BME280;58373;51.824;5.564;2023-03-31T10:32:26;99278.31;;;11.50;92.13
57990;BME280;58373;51.824;5.564;2023-03-31T10:34:53;99281.09;;;11.48;92.52
57990;BME280;58373;51.824;5.564;2023-03-31T10:37:21;99268.19;;;11.63;92.59
57990;BME280;58373;51.824;5.564;2023-03-31T10:39:47;99261.25;;;11.55;92.24
57990;BME280;58373;51.824;5.564;2023-03-31T10:42:20;99264.75;;;11.70;91.25
57990;BME280;58373;51.824;5.564;2023-03-31T10:44:46;99266.00;;;11.75;90.35
57990;BME280;58373;51.824;5.564;2023-03-31T10:49:37;99258.59;;;11.63;90.96
57990;BME280;58373;51.824;5.564;2023-03-31T10:52:08;99267.06;;;11.65;90.78
57990;BME280;58373;51.824;5.564;2023-03-31T10:54:42;99266.06;;;11.66;91.89
57990;BME280;58373;51.824;5.564;2023-03-31T10:57:10;99262.78;;;11.73;90.51
57990;BME280;58373;51.824;5.564;2023-03-31T11:15:12;99256.88;;;11.56;89.57
57990;BME280;58373;51.824;5.564;2023-03-31T11:22:46;99234.28;;;11.64;89.26
57990;BME280;58373;51.824;5.564;2023-03-31T11:25:21;99238.31;;;11.67;88.66
57990;BME280;58373;51.824;5.564;2023-03-31T11:27:56;99233.91;;;11.67;89.46
57990;BME280;58373;51.824;5.564;2023-03-31T11:30:31;99230.00;;;11.72;89.25
57990;BME280;58373;51.824;5.564;2023-03-31T11:43:40;99225.25;;;11.75;86.90
57990;BME280;58373;51.824;5.564;2023-03-31T11:48:34;99219.63;;;11.72;87.75
57990;BME280;58373;51.824;5.564;2023-03-31T11:51:00;99214.88;;;11.75;86.99
57990;BME280;58373;51.824;5.564;2023-03-31T11:53:31;99204.03;;;11.72;85.75
57990;BME280;58373;51.824;5.564;2023-03-31T11:55:58;99211.03;;;11.71;87.10
57990;BME280;58373;51.824;5.564;2023-03-31T11:58:32;99205.56;;;11.81;86.30
57990;BME280;58373;51.824;5.564;2023-03-31T12:01:02;99199.56;;;11.88;84.43
57990;BME280;58373;51.824;5.564;2023-03-31T12:03:38;99195.38;;;11.79;84.10
57990;BME280;58373;51.824;5.564;2023-03-31T12:06:11;99197.16;;;11.79;85.43
57990;BME280;58373;51.824;5.564;2023-03-31T12:08:44;99192.28;;;11.84;84.47
57990;BME280;58373;51.824;5.564;2023-03-31T12:11:20;99180.28;;;11.83;83.26
57990;BME280;58373;51.824;5.564;2023-03-31T12:16:36;99182.91;;;11.75;83.95
57990;BME280;58373;51.824;5.564;2023-03-31T12:19:19;99175.75;;;11.77;83.41
57990;BME280;58373;51.824;5.564;2023-03-31T12:21:51;99188.91;;;11.75;82.73
57990;BME280;58373;51.824;5.564;2023-03-31T12:24:18;99178.06;;;11.72;83.08
57990;BME280;58373;51.824;5.564;2023-03-31T12:27:02;99172.66;;;11.81;82.09
57990;BME280;58373;51.824;5.564;2023-03-31T12:31:55;99166.31;;;11.84;81.34
57990;BME280;58373;51.824;5.564;2023-03-31T12:34:21;99178.97;;;11.79;81.05
57990;BME280;58373;51.824;5.564;2023-03-31T12:37:12;99174.81;;;11.69;80.93
57990;BME280;58373;51.824;5.564;2023-03-31T12:39:51;99177.47;;;11.61;81.75
57990;BME280;58373;51.824;5.564;2023-03-31T12:55:39;99155.69;;;11.70;84.78
57990;BME280;58373;51.824;5.564;2023-03-31T13:00:53;99152.00;;;11.88;84.55
57990;BME280;58373;51.824;5.564;2023-03-31T13:05:59;99141.44;;;11.89;85.51
57990;BME280;58373;51.824;5.564;2023-03-31T13:11:10;99131.75;;;11.98;84.71
57990;BME280;58373;51.824;5.564;2023-03-31T13:13:35;99125.59;;;11.76;84.29
57990;BME280;58373;51.824;5.564;2023-03-31T13:16:04;99136.16;;;11.75;84.69
57990;BME280;58373;51.824;5.564;2023-03-31T13:18:30;99131.94;;;11.74;84.69
57990;BME280;58373;51.824;5.564;2023-03-31T13:20:57;99132.31;;;11.70;85.14
57990;BME280;58373;51.824;5.564;2023-03-31T13:23:23;99138.47;;;11.92;84.18
57990;BME280;58373;51.824;5.564;2023-03-31T13:25:56;99133.41;;;11.76;85.13
57990;BME280;58373;51.824;5.564;2023-03-31T13:35:45;99127.56;;;11.51;87.26
57990;BME280;58373;51.824;5.564;2023-03-31T13:41:02;99128.94;;;11.39;87.78
57990;BME280;58373;51.824;5.564;2023-03-31T13:43:44;99125.84;;;11.35;87.82
57990;BME280;58373;51.824;5.564;2023-03-31T13:48:47;99121.03;;;11.32;88.56
57990;BME280;58373;51.824;5.564;2023-03-31T13:54:09;99113.53;;;11.37;87.97
57990;BME280;58373;51.824;5.564;2023-03-31T13:59:20;99105.69;;;11.46;88.59
57990;BME280;58373;51.824;5.564;2023-03-31T14:06:59;99117.56;;;11.40;87.23
57990;BME280;58373;51.824;5.564;2023-03-31T14:09:30;99111.44;;;11.33;87.63
57990;BME280;58373;51.824;5.564;2023-03-31T14:11:57;99115.34;;;11.29;87.58
57990;BME280;58373;51.824;5.564;2023-03-31T14:14:23;99116.88;;;11.46;86.64
57990;BME280;58373;51.824;5.564;2023-03-31T14:16:54;99107.19;;;11.40;87.46
57990;BME280;58373;51.824;5.564;2023-03-31T14:24:57;99101.13;;;11.25;89.09
57990;BME280;58373;51.824;5.564;2023-03-31T14:35:41;99095.69;;;11.11;90.22
57990;BME280;58373;51.824;5.564;2023-03-31T14:38:12;99099.78;;;11.29;90.57
57990;BME280;58373;51.824;5.564;2023-03-31T14:40:57;99094.06;;;11.10;91.57
57990;BME280;58373;51.824;5.564;2023-03-31T14:43:35;99093.44;;;11.08;91.77
57990;BME280;58373;51.824;5.564;2023-03-31T14:46:03;99090.41;;;10.97;92.45
57990;BME280;58373;51.824;5.564;2023-03-31T14:48:29;99084.44;;;10.96;92.73
57990;BME280;58373;51.824;5.564;2023-03-31T14:50:56;99069.66;;;10.97;93.07
57990;BME280;58373;51.824;5.564;2023-03-31T14:53:23;99088.31;;;10.92;93.27
57990;BME280;58373;51.824;5.564;2023-03-31T14:55:49;99067.56;;;10.92;93.27
57990;BME280;58373;51.824;5.564;2023-03-31T14:58:20;99081.44;;;11.07;92.67
57990;BME280;58373;51.824;5.564;2023-03-31T15:00:48;99086.63;;;11.07;93.13
57990;BME280;58373;51.824;5.564;2023-03-31T15:03:13;99080.84;;;10.97;93.17
57990;BME280;58373;51.824;5.564;2023-03-31T15:05:40;99081.91;;;11.11;93.28
57990;BME280;58373;51.824;5.564;2023-03-31T15:08:06;99083.78;;;10.94;93.46
57990;BME280;58373;51.824;5.564;2023-03-31T15:10:32;99072.13;;;10.90;93.40
57990;BME280;58373;51.824;5.564;2023-03-31T15:13:00;99076.66;;;10.88;93.87
57990;BME280;58373;51.824;5.564;2023-03-31T15:15:25;99083.81;;;10.86;93.31
57990;BME280;58373;51.824;5.564;2023-03-31T15:17:51;99080.84;;;10.97;92.28
57990;BME280;58373;51.824;5.564;2023-03-31T15:20:27;99075.88;;;10.87;91.81
57990;BME280;58373;51.824;5.564;2023-03-31T15:22:53;99076.59;;;10.73;93.08
57990;BME280;58373;51.824;5.564;2023-03-31T15:25:20;99078.06;;;10.68;93.41
57990;BME280;58373;51.824;5.564;2023-03-31T15:27:59;99084.56;;;10.63;93.36
57990;BME280;58373;51.824;5.564;2023-03-31T15:30:25;99078.91;;;10.60;93.25
57990;BME280;58373;51.824;5.564;2023-03-31T15:32:52;99076.47;;;10.58;93.40
57990;BME280;58373;51.824;5.564;2023-03-31T15:35:24;99079.69;;;10.60;94.22
57990;BME280;58373;51.824;5.564;2023-03-31T15:37:51;99072.91;;;10.59;93.96
57990;BME280;58373;51.824;5.564;2023-03-31T15:40:25;99069.69;;;10.57;93.53
57990;BME280;58373;51.824;5.564;2023-03-31T15:42:55;99074.88;;;10.57;94.01
57990;BME280;58373;51.824;5.564;2023-03-31T15:47:50;99074.88;;;10.49;93.27
57990;BME280;58373;51.824;5.564;2023-03-31T15:50:16;99071.34;;;10.42;93.68